sensor_id;sensor_type;location;lat;lon;timestamp;P1;durP1;ratioP1;P2;durP2;ratioP2
2658;SDS011;1339;53.304;10.406;2023-04-25T00:00:21;10.68;;;6.65;;
2658;SDS011;1339;53.304;10.406;2023-04-25T00:02:49;8.95;;;7.22;;
2658;SDS011;1339;53.304;10.406;2023-04-25T00:05:16;8.05;;;6.53;;
2658;SDS011;1339;53.304;10.406;2023-04-25T00:07:44;8.95;;;8.00;;
2658;SDS011;1339;53.304;10.406;2023-04-25T00:10:11;10.23;;;8.55;;
2658;SDS011;1339;53.304;10.406;2023-04-25T00:12:38;10.80;;;7.88;;
2658;SDS011;1339;53.304;10.406;2023-04-25T00:15:05;11.85;;;8.57;;
2658;SDS011;1339;53.304;10.406;2023-04-25T00:17:32;8.80;;;7.95;;
2658;SDS011;1339;53.304;10.406;2023-04-25T00:20:01;10.77;;;7.78;;
2658;SDS011;1339;53.304;10.406;2023-04-25T00:22:30;10.85;;;8.55;;
2658;SDS011;1339;53.304;10.406;2023-04-25T00:24:58;8.57;;;7.78;;
2658;SDS011;1339;53.304;10.406;2023-04-25T00:27:25;12.63;;;9.82;;
2658;SDS011;1339;53.304;10.406;2023-04-25T00:29:52;10.05;;;9.05;;
2658;SDS011;1339;53.304;10.406;2023-04-25T00:32:19;10.10;;;9.10;;
2658;SDS011;1339;53.304;10.406;2023-04-25T00:34:46;9.90;;;8.85;;
2658;SDS011;1339;53.304;10.406;2023-04-25T00:37:14;11.38;;;8.75;;
2658;SDS011;1339;53.304;10.406;2023-04-25T00:39:41;11.43;;;10.10;;
2658;SDS011;1339;53.304;10.406;2023-04-25T00:42:08;11.90;;;9.48;;
2658;SDS011;1339;53.304;10.406;2023-04-25T00:44:35;10.32;;;9.40;;
2658;SDS011;1339;53.304;10.406;2023-04-25T00:47:02;10.75;;;9.82;;
2658;SDS011;1339;53.304;10.406;2023-04-25T00:49:29;13.02;;;9.80;;
2658;SDS011;1339;53.304;10.406;2023-04-25T00:51:56;10.55;;;9.35;;
2658;SDS011;1339;53.304;10.406;2023-04-25T00:54:24;10.20;;;9.20;;
2658;SDS011;1339;53.304;10.406;2023-04-25T00:56:51;10.57;;;9.60;;
2658;SDS011;1339;53.304;10.406;2023-04-25T00:59:19;11.30;;;10.43;;
2658;SDS011;1339;53.304;10.406;2023-04-25T01:01:46;9.10;;;8.23;;
2658;SDS011;1339;53.304;10.406;2023-04-25T01:04:13;9.60;;;8.70;;
2658;SDS011;1339;53.304;10.406;2023-04-25T01:06:40;10.25;;;9.18;;
2658;SDS011;1339;53.304;10.406;2023-04-25T01:09:07;11.15;;;9.07;;
2658;SDS011;1339;53.304;10.406;2023-04-25T01:11:35;9.55;;;8.65;;
2658;SDS011;1339;53.304;10.406;2023-04-25T01:14:02;8.13;;;7.32;;
2658;SDS011;1339;53.304;10.406;2023-04-25T01:16:29;7.30;;;6.60;;
2658;SDS011;1339;53.304;10.406;2023-04-25T01:18:56;5.38;;;4.88;;
2658;SDS011;1339;53.304;10.406;2023-04-25T01:21:25;6.60;;;5.47;;
2658;SDS011;1339;53.304;10.406;2023-04-25T01:23:54;7.40;;;5.22;;
2658;SDS011;1339;53.304;10.406;2023-04-25T01:26:21;6.70;;;5.13;;
2658;SDS011;1339;53.304;10.406;2023-04-25T01:28:49;10.35;;;4.75;;
2658;SDS011;1339;53.304;10.406;2023-04-25T01:31:16;18.15;;;5.53;;
2658;SDS011;1339;53.304;10.406;2023-04-25T01:33:43;19.58;;;5.70;;
2658;SDS011;1339;53.304;10.406;2023-04-25T01:36:10;10.82;;;5.60;;
2658;SDS011;1339;53.304;10.406;2023-04-25T01:38:39;8.38;;;4.47;;
2658;SDS011;1339;53.304;10.406;2023-04-25T01:41:06;14.48;;;5.00;;
2658;SDS011;1339;53.304;10.406;2023-04-25T01:43:33;11.98;;;5.03;;
2658;SDS011;1339;53.304;10.406;2023-04-25T01:46:00;9.75;;;4.82;;
2658;SDS011;1339;53.304;10.406;2023-04-25T01:48:27;9.40;;;4.60;;
2658;SDS011;1339;53.304;10.406;2023-04-25T01:50:54;8.45;;;5.15;;
2658;SDS011;1339;53.304;10.406;2023-04-25T01:53:21;17.48;;;5.65;;
2658;SDS011;1339;53.304;10.406;2023-04-25T01:55:49;9.52;;;5.25;;
2658;SDS011;1339;53.304;10.406;2023-04-25T01:58:16;12.85;;;4.85;;
2658;SDS011;1339;53.304;10.406;2023-04-25T02:00:43;16.25;;;6.10;;
2658;SDS011;1339;53.304;10.406;2023-04-25T02:03:10;14.65;;;5.60;;
2658;SDS011;1339;53.304;10.406;2023-04-25T02:05:37;14.80;;;5.82;;
2658;SDS011;1339;53.304;10.406;2023-04-25T02:08:05;16.23;;;6.32;;
2658;SDS011;1339;53.304;10.406;2023-04-25T02:10:33;15.93;;;5.65;;
2658;SDS011;1339;53.304;10.406;2023-04-25T02:13:01;16.10;;;5.80;;
2658;SDS011;1339;53.304;10.406;2023-04-25T02:15:29;10.82;;;5.30;;
2658;SDS011;1339;53.304;10.406;2023-04-25T02:17:56;20.48;;;5.75;;
2658;SDS011;1339;53.304;10.406;2023-04-25T02:20:25;11.80;;;5.50;;
2658;SDS011;1339;53.304;10.406;2023-04-25T02:22:52;15.57;;;6.45;;
2658;SDS011;1339;53.304;10.406;2023-04-25T02:25:19;16.13;;;6.63;;
2658;SDS011;1339;53.304;10.406;2023-04-25T02:27:46;9.88;;;5.20;;
2658;SDS011;1339;53.304;10.406;2023-04-25T02:30:14;15.60;;;5.20;;
2658;SDS011;1339;53.304;10.406;2023-04-25T02:32:41;17.20;;;5.72;;
2658;SDS011;1339;53.304;10.406;2023-04-25T02:35:08;15.70;;;5.15;;
2658;SDS011;1339;53.304;10.406;2023-04-25T02:37:36;18.33;;;6.40;;
2658;SDS011;1339;53.304;10.406;2023-04-25T02:40:03;19.20;;;6.57;;
2658;SDS011;1339;53.304;10.406;2023-04-25T02:42:31;13.32;;;4.65;;
2658;SDS011;1339;53.304;10.406;2023-04-25T02:44:58;17.55;;;5.85;;
2658;SDS011;1339;53.304;10.406;2023-04-25T02:47:26;20.70;;;6.10;;
2658;SDS011;1339;53.304;10.406;2023-04-25T02:49:53;24.52;;;7.95;;
2658;SDS011;1339;53.304;10.406;2023-04-25T02:52:20;11.82;;;5.38;;
2658;SDS011;1339;53.304;10.406;2023-04-25T02:54:47;12.50;;;5.93;;
2658;SDS011;1339;53.304;10.406;2023-04-25T02:57:14;16.30;;;5.55;;
2658;SDS011;1339;53.304;10.406;2023-04-25T02:59:41;18.85;;;5.60;;
2658;SDS011;1339;53.304;10.406;2023-04-25T03:02:08;21.15;;;8.27;;
2658;SDS011;1339;53.304;10.406;2023-04-25T03:04:36;20.30;;;5.65;;
2658;SDS011;1339;53.304;10.406;2023-04-25T03:07:03;19.73;;;7.00;;
2658;SDS011;1339;53.304;10.406;2023-04-25T03:09:30;22.85;;;6.03;;
2658;SDS011;1339;53.304;10.406;2023-04-25T03:11:57;13.68;;;5.57;;
2658;SDS011;1339;53.304;10.406;2023-04-25T03:14:25;24.02;;;5.80;;
2658;SDS011;1339;53.304;10.406;2023-04-25T03:16:52;17.08;;;5.85;;
2658;SDS011;1339;53.304;10.406;2023-04-25T03:19:19;19.65;;;6.18;;
2658;SDS011;1339;53.304;10.406;2023-04-25T03:21:47;15.18;;;5.07;;
2658;SDS011;1339;53.304;10.406;2023-04-25T03:24:14;11.75;;;4.72;;
2658;SDS011;1339;53.304;10.406;2023-04-25T03:26:41;21.73;;;6.15;;
2658;SDS011;1339;53.304;10.406;2023-04-25T03:29:08;13.30;;;4.75;;
2658;SDS011;1339;53.304;10.406;2023-04-25T03:31:35;20.02;;;6.70;;
2658;SDS011;1339;53.304;10.406;2023-04-25T03:34:02;18.15;;;5.68;;
2658;SDS011;1339;53.304;10.406;2023-04-25T03:36:29;23.92;;;7.13;;
2658;SDS011;1339;53.304;10.406;2023-04-25T03:38:57;16.00;;;5.20;;
2658;SDS011;1339;53.304;10.406;2023-04-25T03:41:24;12.40;;;5.65;;
2658;SDS011;1339;53.304;10.406;2023-04-25T03:43:51;14.55;;;4.80;;
2658;SDS011;1339;53.304;10.406;2023-04-25T03:46:18;23.73;;;6.18;;
2658;SDS011;1339;53.304;10.406;2023-04-25T03:48:45;15.93;;;4.32;;
2658;SDS011;1339;53.304;10.406;2023-04-25T03:51:12;16.05;;;5.65;;
2658;SDS011;1339;53.304;10.406;2023-04-25T03:53:39;12.65;;;5.07;;
2658;SDS011;1339;53.304;10.406;2023-04-25T03:56:07;14.75;;;5.60;;
2658;SDS011;1339;53.304;10.406;2023-04-25T03:58:34;42.30;;;8.40;;
2658;SDS011;1339;53.304;10.406;2023-04-25T04:01:01;18.05;;;5.07;;
2658;SDS011;1339;53.304;10.406;2023-04-25T04:03:32;11.73;;;4.88;;
2658;SDS011;1339;53.304;10.406;2023-04-25T04:05:59;15.20;;;6.00;;
2658;SDS011;1339;53.304;10.406;2023-04-25T04:08:26;12.88;;;5.10;;
2658;SDS011;1339;53.304;10.406;2023-04-25T04:10:52;16.05;;;5.78;;
2658;SDS011;1339;53.304;10.406;2023-04-25T04:13:21;18.00;;;5.63;;
2658;SDS011;1339;53.304;10.406;2023-04-25T04:15:48;14.30;;;6.00;;
2658;SDS011;1339;53.304;10.406;2023-04-25T04:18:15;15.18;;;5.43;;
2658;SDS011;1339;53.304;10.406;2023-04-25T04:20:42;13.73;;;5.00;;
2658;SDS011;1339;53.304;10.406;2023-04-25T04:23:09;11.90;;;5.03;;
2658;SDS011;1339;53.304;10.406;2023-04-25T04:25:36;14.35;;;4.63;;
2658;SDS011;1339;53.304;10.406;2023-04-25T04:28:04;15.38;;;5.07;;
2658;SDS011;1339;53.304;10.406;2023-04-25T04:30:33;14.27;;;5.20;;
2658;SDS011;1339;53.304;10.406;2023-04-25T04:33:01;18.95;;;5.60;;
2658;SDS011;1339;53.304;10.406;2023-04-25T04:35:28;16.70;;;4.95;;
2658;SDS011;1339;53.304;10.406;2023-04-25T04:37:55;19.48;;;5.85;;
2658;SDS011;1339;53.304;10.406;2023-04-25T04:40:22;16.58;;;6.32;;
2658;SDS011;1339;53.304;10.406;2023-04-25T04:42:50;13.52;;;5.25;;
2658;SDS011;1339;53.304;10.406;2023-04-25T04:45:18;16.58;;;6.65;;
2658;SDS011;1339;53.304;10.406;2023-04-25T04:47:46;12.80;;;5.25;;
2658;SDS011;1339;53.304;10.406;2023-04-25T04:50:14;17.23;;;6.13;;
2658;SDS011;1339;53.304;10.406;2023-04-25T04:52:41;20.80;;;8.55;;
2658;SDS011;1339;53.304;10.406;2023-04-25T04:55:08;13.82;;;5.63;;
2658;SDS011;1339;53.304;10.406;2023-04-25T04:57:35;17.10;;;4.85;;
2658;SDS011;1339;53.304;10.406;2023-04-25T05:00:03;12.32;;;7.32;;
2658;SDS011;1339;53.304;10.406;2023-04-25T05:02:32;16.95;;;4.43;;
2658;SDS011;1339;53.304;10.406;2023-04-25T05:05:00;16.08;;;5.50;;
2658;SDS011;1339;53.304;10.406;2023-04-25T05:07:27;11.73;;;8.10;;
2658;SDS011;1339;53.304;10.406;2023-04-25T05:09:54;18.02;;;4.72;;
2658;SDS011;1339;53.304;10.406;2023-04-25T05:12:21;12.63;;;5.30;;
2658;SDS011;1339;53.304;10.406;2023-04-25T05:14:48;12.43;;;4.40;;
2658;SDS011;1339;53.304;10.406;2023-04-25T05:17:15;9.77;;;4.22;;
2658;SDS011;1339;53.304;10.406;2023-04-25T05:19:41;16.63;;;5.38;;
2658;SDS011;1339;53.304;10.406;2023-04-25T05:22:10;12.38;;;4.90;;
2658;SDS011;1339;53.304;10.406;2023-04-25T05:24:37;17.65;;;6.38;;
2658;SDS011;1339;53.304;10.406;2023-04-25T05:27:04;13.32;;;4.50;;
2658;SDS011;1339;53.304;10.406;2023-04-25T05:29:31;17.52;;;6.55;;
2658;SDS011;1339;53.304;10.406;2023-04-25T05:31:58;13.00;;;4.43;;
2658;SDS011;1339;53.304;10.406;2023-04-25T05:34:25;20.77;;;6.00;;
2658;SDS011;1339;53.304;10.406;2023-04-25T05:36:52;16.35;;;4.82;;
2658;SDS011;1339;53.304;10.406;2023-04-25T05:39:20;17.95;;;5.00;;
2658;SDS011;1339;53.304;10.406;2023-04-25T05:41:47;21.33;;;4.75;;
2658;SDS011;1339;53.304;10.406;2023-04-25T05:44:14;17.33;;;5.03;;
2658;SDS011;1339;53.304;10.406;2023-04-25T05:46:41;11.68;;;4.20;;
2658;SDS011;1339;53.304;10.406;2023-04-25T05:49:08;15.75;;;4.20;;
2658;SDS011;1339;53.304;10.406;2023-04-25T05:51:35;11.25;;;5.28;;
2658;SDS011;1339;53.304;10.406;2023-04-25T05:54:02;12.77;;;4.18;;
2658;SDS011;1339;53.304;10.406;2023-04-25T05:56:31;8.77;;;3.50;;
2658;SDS011;1339;53.304;10.406;2023-04-25T05:58:58;8.45;;;3.65;;
2658;SDS011;1339;53.304;10.406;2023-04-25T06:01:24;13.15;;;3.70;;
2658;SDS011;1339;53.304;10.406;2023-04-25T06:03:51;9.93;;;4.40;;
2658;SDS011;1339;53.304;10.406;2023-04-25T06:06:18;11.73;;;3.80;;
2658;SDS011;1339;53.304;10.406;2023-04-25T06:08:46;11.18;;;3.83;;
2658;SDS011;1339;53.304;10.406;2023-04-25T06:11:13;6.82;;;3.47;;
2658;SDS011;1339;53.304;10.406;2023-04-25T06:13:41;16.45;;;4.75;;
2658;SDS011;1339;53.304;10.406;2023-04-25T06:16:08;15.85;;;3.65;;
2658;SDS011;1339;53.304;10.406;2023-04-25T06:18:35;8.63;;;3.85;;
2658;SDS011;1339;53.304;10.406;2023-04-25T06:21:02;11.43;;;4.07;;
2658;SDS011;1339;53.304;10.406;2023-04-25T06:23:29;12.45;;;4.15;;
2658;SDS011;1339;53.304;10.406;2023-04-25T06:25:56;8.52;;;3.80;;
2658;SDS011;1339;53.304;10.406;2023-04-25T06:28:23;10.95;;;3.45;;
2658;SDS011;1339;53.304;10.406;2023-04-25T06:30:51;14.30;;;3.10;;
2658;SDS011;1339;53.304;10.406;2023-04-25T06:33:18;12.02;;;3.53;;
2658;SDS011;1339;53.304;10.406;2023-04-25T06:35:46;8.23;;;3.22;;
2658;SDS011;1339;53.304;10.406;2023-04-25T06:38:13;10.02;;;3.22;;
2658;SDS011;1339;53.304;10.406;2023-04-25T06:40:40;8.52;;;3.25;;
2658;SDS011;1339;53.304;10.406;2023-04-25T06:43:07;9.63;;;3.55;;
2658;SDS011;1339;53.304;10.406;2023-04-25T06:45:34;7.53;;;2.75;;
2658;SDS011;1339;53.304;10.406;2023-04-25T06:48:02;11.60;;;4.30;;
2658;SDS011;1339;53.304;10.406;2023-04-25T06:50:29;10.88;;;3.75;;
2658;SDS011;1339;53.304;10.406;2023-04-25T06:52:56;7.95;;;3.30;;
2658;SDS011;1339;53.304;10.406;2023-04-25T06:55:23;7.63;;;3.25;;
2658;SDS011;1339;53.304;10.406;2023-04-25T06:57:50;10.00;;;3.90;;
2658;SDS011;1339;53.304;10.406;2023-04-25T07:00:17;10.82;;;3.05;;
2658;SDS011;1339;53.304;10.406;2023-04-25T07:02:44;11.40;;;4.40;;
2658;SDS011;1339;53.304;10.406;2023-04-25T07:05:13;13.63;;;4.05;;
2658;SDS011;1339;53.304;10.406;2023-04-25T07:07:39;4.38;;;3.45;;
2658;SDS011;1339;53.304;10.406;2023-04-25T07:10:06;9.23;;;3.50;;
2658;SDS011;1339;53.304;10.406;2023-04-25T07:12:33;8.85;;;3.42;;
2658;SDS011;1339;53.304;10.406;2023-04-25T07:15:00;8.13;;;3.58;;
2658;SDS011;1339;53.304;10.406;2023-04-25T07:17:31;10.88;;;2.80;;
2658;SDS011;1339;53.304;10.406;2023-04-25T07:19:58;10.18;;;3.50;;
2658;SDS011;1339;53.304;10.406;2023-04-25T07:22:26;8.57;;;4.30;;
2658;SDS011;1339;53.304;10.406;2023-04-25T07:24:53;10.25;;;3.83;;
2658;SDS011;1339;53.304;10.406;2023-04-25T07:27:20;9.52;;;4.07;;
2658;SDS011;1339;53.304;10.406;2023-04-25T07:29:47;12.32;;;3.75;;
2658;SDS011;1339;53.304;10.406;2023-04-25T07:32:14;5.82;;;2.67;;
2658;SDS011;1339;53.304;10.406;2023-04-25T07:34:41;9.75;;;3.92;;
2658;SDS011;1339;53.304;10.406;2023-04-25T07:37:08;16.50;;;3.40;;
2658;SDS011;1339;53.304;10.406;2023-04-25T07:39:37;9.10;;;4.18;;
2658;SDS011;1339;53.304;10.406;2023-04-25T07:42:04;12.38;;;4.35;;
2658;SDS011;1339;53.304;10.406;2023-04-25T07:44:33;7.35;;;3.38;;
2658;SDS011;1339;53.304;10.406;2023-04-25T07:47:03;7.43;;;3.17;;
2658;SDS011;1339;53.304;10.406;2023-04-25T07:49:32;9.45;;;3.50;;
2658;SDS011;1339;53.304;10.406;2023-04-25T07:51:59;14.00;;;3.70;;
2658;SDS011;1339;53.304;10.406;2023-04-25T07:54:26;12.02;;;4.20;;
2658;SDS011;1339;53.304;10.406;2023-04-25T07:56:55;11.40;;;4.43;;
2658;SDS011;1339;53.304;10.406;2023-04-25T07:59:22;11.93;;;4.32;;
2658;SDS011;1339;53.304;10.406;2023-04-25T08:01:49;9.20;;;2.90;;
2658;SDS011;1339;53.304;10.406;2023-04-25T08:04:16;9.38;;;3.25;;
2658;SDS011;1339;53.304;10.406;2023-04-25T08:06:43;10.10;;;3.50;;
2658;SDS011;1339;53.304;10.406;2023-04-25T08:09:10;9.75;;;3.28;;
2658;SDS011;1339;53.304;10.406;2023-04-25T08:11:38;4.90;;;2.45;;
2658;SDS011;1339;53.304;10.406;2023-04-25T08:14:06;9.00;;;3.80;;
2658;SDS011;1339;53.304;10.406;2023-04-25T08:16:33;4.43;;;2.85;;
2658;SDS011;1339;53.304;10.406;2023-04-25T08:19:00;6.85;;;2.97;;
2658;SDS011;1339;53.304;10.406;2023-04-25T08:21:27;7.50;;;3.15;;
2658;SDS011;1339;53.304;10.406;2023-04-25T08:23:54;13.05;;;3.97;;
2658;SDS011;1339;53.304;10.406;2023-04-25T08:26:23;7.10;;;3.65;;
2658;SDS011;1339;53.304;10.406;2023-04-25T08:28:50;9.80;;;4.13;;
2658;SDS011;1339;53.304;10.406;2023-04-25T08:31:18;10.50;;;3.15;;
2658;SDS011;1339;53.304;10.406;2023-04-25T08:33:45;5.60;;;2.83;;
2658;SDS011;1339;53.304;10.406;2023-04-25T08:36:12;8.65;;;2.50;;
2658;SDS011;1339;53.304;10.406;2023-04-25T08:38:39;5.80;;;3.22;;
2658;SDS011;1339;53.304;10.406;2023-04-25T08:41:06;7.50;;;2.30;;
2658;SDS011;1339;53.304;10.406;2023-04-25T08:43:33;6.95;;;3.33;;
2658;SDS011;1339;53.304;10.406;2023-04-25T08:46:01;5.80;;;3.00;;
2658;SDS011;1339;53.304;10.406;2023-04-25T08:48:30;4.10;;;2.13;;
2658;SDS011;1339;53.304;10.406;2023-04-25T08:50:58;3.75;;;2.38;;
2658;SDS011;1339;53.304;10.406;2023-04-25T08:53:28;3.92;;;2.13;;
2658;SDS011;1339;53.304;10.406;2023-04-25T08:55:56;8.90;;;3.45;;
2658;SDS011;1339;53.304;10.406;2023-04-25T08:58:23;8.15;;;3.20;;
2658;SDS011;1339;53.304;10.406;2023-04-25T09:00:51;4.90;;;2.38;;
2658;SDS011;1339;53.304;10.406;2023-04-25T09:03:18;6.18;;;2.40;;
2658;SDS011;1339;53.304;10.406;2023-04-25T09:05:46;5.47;;;1.98;;
2658;SDS011;1339;53.304;10.406;2023-04-25T09:08:13;5.50;;;2.13;;
2658;SDS011;1339;53.304;10.406;2023-04-25T09:10:40;8.63;;;2.03;;
2658;SDS011;1339;53.304;10.406;2023-04-25T09:13:08;8.43;;;2.78;;
2658;SDS011;1339;53.304;10.406;2023-04-25T09:15:46;5.93;;;2.58;;
2658;SDS011;1339;53.304;10.406;2023-04-25T09:18:16;3.20;;;1.90;;
2658;SDS011;1339;53.304;10.406;2023-04-25T09:20:49;4.90;;;2.72;;
2658;SDS011;1339;53.304;10.406;2023-04-25T09:23:16;7.55;;;2.50;;
2658;SDS011;1339;53.304;10.406;2023-04-25T09:25:45;5.43;;;2.17;;
2658;SDS011;1339;53.304;10.406;2023-04-25T09:28:13;5.50;;;2.10;;
2658;SDS011;1339;53.304;10.406;2023-04-25T09:30:40;5.85;;;3.70;;
2658;SDS011;1339;53.304;10.406;2023-04-25T09:33:08;8.02;;;2.08;;
2658;SDS011;1339;53.304;10.406;2023-04-25T09:35:35;3.95;;;1.92;;
2658;SDS011;1339;53.304;10.406;2023-04-25T09:38:08;11.25;;;2.22;;
2658;SDS011;1339;53.304;10.406;2023-04-25T09:40:38;11.55;;;2.50;;
2658;SDS011;1339;53.304;10.406;2023-04-25T09:43:08;3.70;;;1.90;;
2658;SDS011;1339;53.304;10.406;2023-04-25T09:45:40;3.80;;;2.17;;
2658;SDS011;1339;53.304;10.406;2023-04-25T09:48:10;3.38;;;2.15;;
2658;SDS011;1339;53.304;10.406;2023-04-25T09:50:37;2.45;;;0.95;;
2658;SDS011;1339;53.304;10.406;2023-04-25T09:53:05;4.65;;;1.45;;
2658;SDS011;1339;53.304;10.406;2023-04-25T09:55:34;3.60;;;1.75;;
2658;SDS011;1339;53.304;10.406;2023-04-25T09:58:03;3.80;;;1.33;;
2658;SDS011;1339;53.304;10.406;2023-04-25T10:00:31;3.22;;;1.55;;
2658;SDS011;1339;53.304;10.406;2023-04-25T10:02:59;4.63;;;1.77;;
2658;SDS011;1339;53.304;10.406;2023-04-25T10:05:28;2.03;;;1.60;;
2658;SDS011;1339;53.304;10.406;2023-04-25T10:07:58;6.55;;;1.90;;
2658;SDS011;1339;53.304;10.406;2023-04-25T10:10:25;5.05;;;1.95;;
2658;SDS011;1339;53.304;10.406;2023-04-25T10:12:54;5.05;;;1.90;;
2658;SDS011;1339;53.304;10.406;2023-04-25T10:15:21;6.20;;;1.30;;
2658;SDS011;1339;53.304;10.406;2023-04-25T10:17:48;2.15;;;1.23;;
2658;SDS011;1339;53.304;10.406;2023-04-25T10:20:16;7.15;;;1.67;;
2658;SDS011;1339;53.304;10.406;2023-04-25T10:22:44;6.72;;;2.00;;
2658;SDS011;1339;53.304;10.406;2023-04-25T10:25:12;6.97;;;3.35;;
2658;SDS011;1339;53.304;10.406;2023-04-25T10:27:40;3.28;;;1.50;;
2658;SDS011;1339;53.304;10.406;2023-04-25T10:30:09;7.47;;;2.70;;
2658;SDS011;1339;53.304;10.406;2023-04-25T10:32:37;6.45;;;2.20;;
2658;SDS011;1339;53.304;10.406;2023-04-25T10:35:12;3.28;;;1.65;;
2658;SDS011;1339;53.304;10.406;2023-04-25T10:40:22;4.88;;;2.00;;
2658;SDS011;1339;53.304;10.406;2023-04-25T10:42:50;4.60;;;1.60;;
2658;SDS011;1339;53.304;10.406;2023-04-25T10:45:19;2.75;;;1.60;;
2658;SDS011;1339;53.304;10.406;2023-04-25T10:47:46;5.80;;;1.38;;
2658;SDS011;1339;53.304;10.406;2023-04-25T10:50:14;5.70;;;1.80;;
2658;SDS011;1339;53.304;10.406;2023-04-25T10:52:41;5.38;;;1.95;;
2658;SDS011;1339;53.304;10.406;2023-04-25T10:55:12;3.60;;;1.70;;
2658;SDS011;1339;53.304;10.406;2023-04-25T10:57:39;2.72;;;1.60;;
2658;SDS011;1339;53.304;10.406;2023-04-25T11:00:08;6.32;;;1.90;;
2658;SDS011;1339;53.304;10.406;2023-04-25T11:02:43;6.60;;;2.03;;
2658;SDS011;1339;53.304;10.406;2023-04-25T11:05:16;2.92;;;1.77;;
2658;SDS011;1339;53.304;10.406;2023-04-25T11:07:46;2.75;;;1.70;;
2658;SDS011;1339;53.304;10.406;2023-04-25T11:10:16;6.28;;;2.70;;
2658;SDS011;1339;53.304;10.406;2023-04-25T11:12:44;6.40;;;2.10;;
2658;SDS011;1339;53.304;10.406;2023-04-25T11:15:19;4.53;;;1.85;;
2658;SDS011;1339;53.304;10.406;2023-04-25T11:17:52;4.47;;;1.80;;
2658;SDS011;1339;53.304;10.406;2023-04-25T11:20:19;4.43;;;1.60;;
2658;SDS011;1339;53.304;10.406;2023-04-25T11:22:46;6.50;;;1.95;;
2658;SDS011;1339;53.304;10.406;2023-04-25T11:25:14;5.95;;;1.95;;
2658;SDS011;1339;53.304;10.406;2023-04-25T11:27:51;3.30;;;1.90;;
2658;SDS011;1339;53.304;10.406;2023-04-25T11:30:18;1.73;;;1.30;;
2658;SDS011;1339;53.304;10.406;2023-04-25T11:32:46;2.10;;;1.20;;
2658;SDS011;1339;53.304;10.406;2023-04-25T11:35:14;3.85;;;1.50;;
2658;SDS011;1339;53.304;10.406;2023-04-25T11:37:41;3.45;;;1.67;;
2658;SDS011;1339;53.304;10.406;2023-04-25T11:40:09;6.75;;;1.50;;
2658;SDS011;1339;53.304;10.406;2023-04-25T11:42:36;4.40;;;1.30;;
2658;SDS011;1339;53.304;10.406;2023-04-25T11:45:04;4.95;;;1.58;;
2658;SDS011;1339;53.304;10.406;2023-04-25T11:47:33;3.50;;;1.40;;
2658;SDS011;1339;53.304;10.406;2023-04-25T11:50:00;2.00;;;1.15;;
2658;SDS011;1339;53.304;10.406;2023-04-25T11:52:38;2.25;;;1.30;;
2658;SDS011;1339;53.304;10.406;2023-04-25T11:55:06;1.83;;;1.15;;
2658;SDS011;1339;53.304;10.406;2023-04-25T11:57:34;5.15;;;1.30;;
2658;SDS011;1339;53.304;10.406;2023-04-25T12:00:08;8.10;;;1.40;;
2658;SDS011;1339;53.304;10.406;2023-04-25T12:02:36;1.77;;;1.10;;
2658;SDS011;1339;53.304;10.406;2023-04-25T12:05:05;2.25;;;1.10;;
2658;SDS011;1339;53.304;10.406;2023-04-25T12:07:34;4.13;;;1.13;;
2658;SDS011;1339;53.304;10.406;2023-04-25T12:10:10;5.07;;;1.40;;
2658;SDS011;1339;53.304;10.406;2023-04-25T12:12:38;2.15;;;1.20;;
2658;SDS011;1339;53.304;10.406;2023-04-25T12:15:08;5.05;;;2.17;;
2658;SDS011;1339;53.304;10.406;2023-04-25T12:17:36;4.03;;;1.30;;
2658;SDS011;1339;53.304;10.406;2023-04-25T12:20:05;5.32;;;1.38;;
2658;SDS011;1339;53.304;10.406;2023-04-25T12:22:32;2.15;;;1.95;;
2658;SDS011;1339;53.304;10.406;2023-04-25T12:24:59;5.68;;;2.20;;
2658;SDS011;1339;53.304;10.406;2023-04-25T12:27:30;4.20;;;1.73;;
2658;SDS011;1339;53.304;10.406;2023-04-25T12:29:57;3.17;;;1.15;;
2658;SDS011;1339;53.304;10.406;2023-04-25T12:32:24;2.80;;;1.40;;
2658;SDS011;1339;53.304;10.406;2023-04-25T12:34:52;2.65;;;1.33;;
2658;SDS011;1339;53.304;10.406;2023-04-25T12:37:19;2.55;;;1.33;;
2658;SDS011;1339;53.304;10.406;2023-04-25T12:39:46;4.95;;;1.80;;
2658;SDS011;1339;53.304;10.406;2023-04-25T12:42:13;6.05;;;1.33;;
2658;SDS011;1339;53.304;10.406;2023-04-25T12:44:41;2.95;;;1.40;;
2658;SDS011;1339;53.304;10.406;2023-04-25T12:47:08;2.55;;;1.75;;
2658;SDS011;1339;53.304;10.406;2023-04-25T12:49:35;5.00;;;1.05;;
2658;SDS011;1339;53.304;10.406;2023-04-25T12:52:02;5.45;;;1.20;;
2658;SDS011;1339;53.304;10.406;2023-04-25T12:54:29;5.80;;;1.50;;
2658;SDS011;1339;53.304;10.406;2023-04-25T12:56:56;7.13;;;2.08;;
2658;SDS011;1339;53.304;10.406;2023-04-25T12:59:24;2.85;;;1.23;;
2658;SDS011;1339;53.304;10.406;2023-04-25T13:01:52;3.17;;;1.42;;
2658;SDS011;1339;53.304;10.406;2023-04-25T13:04:19;9.45;;;1.42;;
2658;SDS011;1339;53.304;10.406;2023-04-25T13:06:46;4.00;;;1.80;;
2658;SDS011;1339;53.304;10.406;2023-04-25T13:09:13;3.53;;;1.58;;
2658;SDS011;1339;53.304;10.406;2023-04-25T13:11:41;2.55;;;1.65;;
2658;SDS011;1339;53.304;10.406;2023-04-25T13:14:08;4.90;;;1.70;;
2658;SDS011;1339;53.304;10.406;2023-04-25T13:16:35;7.15;;;3.22;;
2658;SDS011;1339;53.304;10.406;2023-04-25T13:19:03;3.80;;;1.67;;
2658;SDS011;1339;53.304;10.406;2023-04-25T13:21:32;4.75;;;1.38;;
2658;SDS011;1339;53.304;10.406;2023-04-25T13:24:00;3.05;;;1.25;;
2658;SDS011;1339;53.304;10.406;2023-04-25T13:26:27;3.40;;;1.45;;
2658;SDS011;1339;53.304;10.406;2023-04-25T13:28:54;2.63;;;1.60;;
2658;SDS011;1339;53.304;10.406;2023-04-25T13:31:22;5.93;;;3.13;;
2658;SDS011;1339;53.304;10.406;2023-04-25T13:33:49;2.30;;;1.60;;
2658;SDS011;1339;53.304;10.406;2023-04-25T13:36:17;3.72;;;1.35;;
2658;SDS011;1339;53.304;10.406;2023-04-25T13:38:45;7.50;;;1.30;;
2658;SDS011;1339;53.304;10.406;2023-04-25T13:41:14;4.60;;;2.20;;
2658;SDS011;1339;53.304;10.406;2023-04-25T13:43:43;7.68;;;3.55;;
2658;SDS011;1339;53.304;10.406;2023-04-25T13:46:11;2.67;;;1.30;;
2658;SDS011;1339;53.304;10.406;2023-04-25T13:48:40;3.33;;;1.42;;
2658;SDS011;1339;53.304;10.406;2023-04-25T13:51:11;3.53;;;1.50;;
2658;SDS011;1339;53.304;10.406;2023-04-25T13:53:39;3.28;;;1.23;;
2658;SDS011;1339;53.304;10.406;2023-04-25T13:56:06;4.47;;;1.50;;
2658;SDS011;1339;53.304;10.406;2023-04-25T13:58:33;3.65;;;1.52;;
2658;SDS011;1339;53.304;10.406;2023-04-25T14:01:00;4.18;;;1.70;;
2658;SDS011;1339;53.304;10.406;2023-04-25T14:03:28;3.83;;;1.08;;
2658;SDS011;1339;53.304;10.406;2023-04-25T14:05:55;5.43;;;1.90;;
2658;SDS011;1339;53.304;10.406;2023-04-25T14:08:22;4.07;;;1.33;;
2658;SDS011;1339;53.304;10.406;2023-04-25T14:10:51;5.38;;;1.95;;
2658;SDS011;1339;53.304;10.406;2023-04-25T14:13:18;4.72;;;1.75;;
2658;SDS011;1339;53.304;10.406;2023-04-25T14:15:45;3.38;;;2.22;;
2658;SDS011;1339;53.304;10.406;2023-04-25T14:18:12;5.93;;;2.25;;
2658;SDS011;1339;53.304;10.406;2023-04-25T14:20:39;3.38;;;1.65;;
2658;SDS011;1339;53.304;10.406;2023-04-25T14:23:06;5.43;;;1.75;;
2658;SDS011;1339;53.304;10.406;2023-04-25T14:25:33;2.67;;;1.90;;
2658;SDS011;1339;53.304;10.406;2023-04-25T14:28:02;6.35;;;1.83;;
2658;SDS011;1339;53.304;10.406;2023-04-25T14:30:29;10.60;;;2.33;;
2658;SDS011;1339;53.304;10.406;2023-04-25T14:32:56;3.92;;;2.70;;
2658;SDS011;1339;53.304;10.406;2023-04-25T14:35:23;5.68;;;1.98;;
2658;SDS011;1339;53.304;10.406;2023-04-25T14:37:50;6.55;;;2.42;;
2658;SDS011;1339;53.304;10.406;2023-04-25T14:40:17;5.20;;;1.70;;
2658;SDS011;1339;53.304;10.406;2023-04-25T14:42:47;4.95;;;1.83;;
2658;SDS011;1339;53.304;10.406;2023-04-25T14:45:16;3.97;;;1.75;;
2658;SDS011;1339;53.304;10.406;2023-04-25T14:47:43;5.13;;;2.05;;
2658;SDS011;1339;53.304;10.406;2023-04-25T14:50:10;3.50;;;1.88;;
2658;SDS011;1339;53.304;10.406;2023-04-25T14:52:37;5.78;;;1.85;;
2658;SDS011;1339;53.304;10.406;2023-04-25T14:55:04;7.47;;;1.73;;
2658;SDS011;1339;53.304;10.406;2023-04-25T14:57:32;3.28;;;1.83;;
2658;SDS011;1339;53.304;10.406;2023-04-25T14:59:59;5.30;;;1.77;;